createdAt,value
2022-08-26T00:01:53.871Z,19.29
2022-08-26T00:04:21.496Z,19.30
2022-08-26T00:06:48.470Z,19.30
2022-08-26T00:09:16.096Z,19.32
2022-08-26T00:11:43.869Z,19.32
2022-08-26T00:14:10.787Z,19.28
2022-08-26T00:16:40.935Z,19.27
2022-08-26T00:19:14.411Z,19.26
2022-08-26T00:21:41.624Z,19.25
2022-08-26T00:24:08.985Z,19.23
2022-08-26T00:26:36.434Z,19.22
2022-08-26T00:29:03.467Z,19.19
2022-08-26T00:31:32.152Z,19.17
2022-08-26T00:33:59.091Z,19.17
2022-08-26T00:36:29.734Z,19.20
2022-08-26T00:38:58.555Z,19.28
2022-08-26T00:41:25.745Z,19.30
2022-08-26T00:43:53.171Z,19.28
2022-08-26T00:46:21.843Z,19.24
2022-08-26T00:48:50.379Z,19.26
2022-08-26T00:51:18.685Z,19.31
2022-08-26T00:53:47.232Z,19.31
2022-08-26T00:56:23.239Z,19.28
2022-08-26T00:58:50.609Z,19.25
2022-08-26T01:01:17.718Z,19.23
2022-08-26T01:03:45.237Z,19.23
2022-08-26T01:06:13.462Z,19.19
2022-08-26T01:08:40.857Z,19.19
2022-08-26T01:11:07.741Z,19.21
2022-08-26T01:13:35.075Z,19.19
2022-08-26T01:16:03.359Z,19.17
2022-08-26T01:18:30.295Z,19.16
2022-08-26T01:21:33.058Z,19.13
2022-08-26T01:24:00.307Z,19.11
2022-08-26T01:29:19.125Z,19.13
2022-08-26T01:31:49.046Z,19.10
2022-08-26T01:34:15.943Z,19.10
2022-08-26T01:36:42.778Z,19.11
2022-08-26T01:39:13.707Z,19.13
2022-08-26T01:41:40.740Z,19.10
2022-08-26T01:44:14.048Z,19.11
2022-08-26T01:46:41.252Z,19.11
2022-08-26T01:49:08.652Z,19.11
2022-08-26T01:51:37.369Z,19.12
2022-08-26T01:54:05.389Z,19.14
2022-08-26T01:56:33.087Z,19.14
2022-08-26T01:59:01.461Z,19.18
2022-08-26T02:01:29.352Z,19.20
2022-08-26T02:04:03.120Z,19.19
2022-08-26T02:06:30.205Z,19.23
2022-08-26T02:08:57.215Z,19.21
2022-08-26T02:11:24.017Z,19.22
2022-08-26T02:13:54.333Z,19.23
2022-08-26T02:16:22.995Z,19.22
2022-08-26T02:18:53.264Z,19.20
2022-08-26T02:21:20.404Z,19.16
2022-08-26T02:23:47.735Z,19.13
2022-08-26T02:26:19.273Z,19.10
2022-08-26T02:29:07.696Z,19.10
2022-08-26T02:31:35.333Z,19.08
2022-08-26T02:34:10.797Z,19.01
2022-08-26T02:36:37.917Z,18.96
2022-08-26T02:39:08.882Z,18.94
2022-08-26T02:41:35.719Z,18.89
2022-08-26T02:44:12.231Z,18.87
2022-08-26T02:46:39.317Z,18.84
2022-08-26T02:49:07.130Z,18.81
2022-08-26T02:51:34.041Z,18.82
2022-08-26T02:54:00.895Z,18.81
2022-08-26T02:56:28.383Z,18.81
2022-08-26T02:58:55.731Z,18.77
2022-08-26T03:01:23.432Z,18.74
2022-08-26T03:03:50.316Z,18.70
2022-08-26T03:06:17.291Z,18.72
2022-08-26T03:08:44.061Z,18.75
2022-08-26T03:11:11.369Z,18.77
2022-08-26T03:13:38.883Z,18.79
2022-08-26T03:16:06.106Z,18.81
2022-08-26T03:18:32.949Z,18.79
2022-08-26T03:21:05.581Z,18.86
2022-08-26T03:23:33.130Z,19.01
2022-08-26T03:26:01.571Z,19.08
2022-08-26T03:28:28.557Z,19.19
2022-08-26T03:30:55.626Z,19.42
2022-08-26T03:33:22.451Z,19.64
2022-08-26T03:35:50.751Z,19.83
2022-08-26T03:38:18.443Z,19.94
2022-08-26T03:40:45.604Z,19.99
2022-08-26T03:43:12.684Z,19.98
2022-08-26T03:45:50.805Z,20.04
2022-08-26T03:48:18.924Z,20.11
2022-08-26T03:50:45.801Z,20.19
2022-08-26T03:53:15.573Z,20.27
2022-08-26T03:55:43.608Z,20.34
2022-08-26T03:58:10.754Z,20.39
2022-08-26T04:00:38.545Z,20.41
2022-08-26T04:03:05.641Z,20.47
2022-08-26T04:05:37.336Z,20.55
2022-08-26T04:08:06.096Z,20.62
2022-08-26T04:10:34.330Z,20.71
2022-08-26T04:13:01.199Z,20.80
2022-08-26T04:15:28.227Z,20.89
2022-08-26T04:17:56.058Z,20.98
2022-08-26T04:20:24.628Z,21.09
2022-08-26T04:22:52.325Z,21.20
2022-08-26T04:25:20.648Z,21.34
2022-08-26T04:27:48.155Z,21.45
2022-08-26T04:30:16.654Z,21.58
2022-08-26T04:32:43.848Z,21.69
2022-08-26T04:35:10.707Z,21.82
2022-08-26T04:37:37.638Z,21.92
2022-08-26T04:40:05.452Z,22.00
2022-08-26T04:45:14.348Z,22.15
2022-08-26T04:47:41.285Z,22.21
2022-08-26T04:50:08.986Z,22.23
2022-08-26T04:52:38.008Z,22.36
2022-08-26T04:55:06.543Z,22.47
2022-08-26T04:57:35.194Z,22.59
2022-08-26T05:00:04.007Z,22.73
2022-08-26T05:02:32.052Z,22.86
2022-08-26T05:04:59.689Z,23.01
2022-08-26T05:07:26.755Z,23.12
2022-08-26T05:09:53.733Z,23.25
2022-08-26T05:12:23.829Z,23.31
2022-08-26T05:14:50.875Z,23.37
2022-08-26T05:17:18.767Z,23.46
2022-08-26T05:19:45.699Z,23.61
2022-08-26T05:22:13.208Z,23.74
2022-08-26T05:25:11.842Z,23.83
2022-08-26T05:27:41.120Z,23.97
2022-08-26T05:30:08.763Z,24.10
2022-08-26T05:32:35.808Z,24.19
2022-08-26T05:35:03.172Z,24.28
2022-08-26T05:37:37.076Z,24.41
2022-08-26T05:40:05.033Z,24.54
2022-08-26T05:43:00.051Z,24.68
2022-08-26T05:45:32.309Z,24.84
2022-08-26T05:47:59.294Z,25.01
2022-08-26T05:50:26.371Z,25.12
2022-08-26T05:52:53.316Z,25.27
2022-08-26T05:55:22.841Z,25.43
2022-08-26T05:57:50.363Z,25.57
2022-08-26T06:00:17.387Z,25.70
2022-08-26T06:02:48.452Z,25.81
2022-08-26T06:05:23.933Z,25.88
2022-08-26T06:08:10.716Z,25.98
2022-08-26T06:10:51.271Z,26.03
2022-08-26T06:13:32.078Z,26.15
2022-08-26T06:16:00.992Z,26.32
2022-08-26T06:18:36.404Z,26.50
2022-08-26T06:21:23.635Z,26.62
2022-08-26T06:24:10.441Z,26.75
2022-08-26T06:26:40.366Z,26.81
2022-08-26T06:29:10.000Z,26.90
2022-08-26T06:31:37.036Z,26.97
2022-08-26T06:34:10.535Z,27.12
2022-08-26T06:36:39.509Z,27.33
2022-08-26T06:39:10.154Z,27.58
2022-08-26T06:41:43.174Z,27.55
2022-08-26T06:44:16.564Z,27.62
2022-08-26T06:46:43.853Z,27.68
2022-08-26T06:49:11.470Z,27.72
2022-08-26T06:51:39.096Z,27.86
2022-08-26T06:54:06.276Z,28.01
2022-08-26T06:56:34.801Z,27.99
2022-08-26T06:59:02.069Z,28.00
2022-08-26T07:01:30.580Z,28.05
2022-08-26T07:03:59.695Z,28.11
2022-08-26T07:06:31.865Z,28.23
2022-08-26T07:09:05.109Z,28.38
2022-08-26T07:11:33.554Z,28.50
2022-08-26T07:14:01.105Z,28.56
2022-08-26T07:16:29.035Z,28.50
2022-08-26T07:19:11.103Z,28.46
2022-08-26T07:21:40.486Z,28.51
2022-08-26T07:24:11.464Z,28.57
2022-08-26T07:26:42.942Z,28.66
2022-08-26T07:29:18.262Z,28.81
2022-08-26T07:31:50.387Z,28.90
2022-08-26T07:34:20.615Z,29.09
2022-08-26T07:36:51.775Z,29.40
2022-08-26T07:39:21.117Z,29.63
2022-08-26T07:44:40.532Z,29.70
2022-08-26T07:47:25.635Z,29.65
2022-08-26T07:49:54.498Z,29.79
2022-08-26T07:52:25.923Z,29.97
2022-08-26T07:54:53.720Z,30.10
2022-08-26T07:57:20.995Z,30.22
2022-08-26T07:59:47.932Z,30.40
2022-08-26T08:02:14.814Z,30.62
2022-08-26T08:04:43.108Z,30.52
2022-08-26T08:07:12.022Z,30.65
2022-08-26T08:09:40.738Z,30.90
2022-08-26T08:12:07.877Z,31.11
2022-08-26T08:14:40.985Z,31.07
2022-08-26T08:17:08.847Z,31.07
2022-08-26T08:19:39.011Z,31.28
2022-08-26T08:22:17.414Z,31.37
2022-08-26T08:24:49.900Z,31.72
2022-08-26T08:27:18.117Z,32.15
2022-08-26T08:29:48.438Z,32.58
2022-08-26T08:32:16.043Z,32.88
2022-08-26T08:37:15.216Z,32.93
2022-08-26T08:39:42.174Z,33.17
2022-08-26T08:42:19.904Z,33.26
2022-08-26T08:44:51.967Z,33.61
2022-08-26T08:47:21.402Z,33.99
2022-08-26T08:49:48.333Z,34.07
2022-08-26T08:52:24.511Z,34.37
2022-08-26T08:54:53.933Z,34.19
2022-08-26T08:57:24.534Z,33.20
2022-08-26T08:59:54.160Z,32.50
2022-08-26T09:02:24.235Z,32.25
2022-08-26T09:04:55.048Z,32.98
2022-08-26T09:07:36.977Z,33.81
2022-08-26T09:10:23.385Z,34.39
2022-08-26T09:12:51.313Z,34.74
2022-08-26T09:15:21.271Z,34.92
2022-08-26T09:17:48.127Z,35.18
2022-08-26T09:20:33.481Z,35.48
2022-08-26T09:23:00.381Z,35.66
2022-08-26T09:25:27.293Z,35.87
2022-08-26T09:27:55.477Z,36.03
2022-08-26T09:30:22.428Z,36.28
2022-08-26T09:33:00.397Z,36.44
2022-08-26T09:35:32.756Z,36.31
2022-08-26T09:38:00.009Z,36.41
2022-08-26T09:40:27.388Z,36.45
2022-08-26T09:43:09.760Z,36.51
2022-08-26T09:45:37.359Z,36.61
2022-08-26T09:48:04.428Z,36.90
2022-08-26T09:50:33.246Z,37.21
2022-08-26T09:53:21.110Z,37.35
2022-08-26T09:56:14.612Z,36.84
2022-08-26T09:58:45.893Z,36.28
2022-08-26T10:01:25.431Z,36.18
2022-08-26T10:03:52.560Z,36.24
2022-08-26T10:06:21.303Z,36.32
2022-08-26T10:09:01.393Z,36.74
2022-08-26T10:11:37.633Z,37.21
2022-08-26T10:14:15.357Z,37.68
2022-08-26T10:16:59.766Z,37.68
2022-08-26T10:19:41.593Z,38.47
2022-08-26T10:22:23.355Z,38.39
2022-08-26T10:24:55.295Z,38.37
2022-08-26T10:27:28.792Z,38.30
2022-08-26T10:29:57.702Z,38.75
2022-08-26T10:32:28.550Z,39.09
2022-08-26T10:34:57.465Z,38.98
2022-08-26T10:37:25.452Z,39.43
2022-08-26T10:40:11.314Z,39.07
2022-08-26T10:42:48.412Z,38.62
2022-08-26T10:45:16.131Z,39.00
2022-08-26T10:47:50.020Z,38.94
2022-08-26T10:50:20.226Z,39.40
2022-08-26T10:52:55.150Z,38.85
2022-08-26T10:55:43.658Z,37.65
2022-08-26T10:58:11.831Z,37.05
2022-08-26T11:01:10.510Z,36.95
2022-08-26T11:03:47.159Z,38.24
2022-08-26T11:06:20.339Z,39.06
2022-08-26T11:08:58.097Z,39.01
2022-08-26T11:11:42.061Z,39.42
2022-08-26T11:14:08.881Z,38.14
2022-08-26T11:19:45.649Z,40.00
2022-08-26T11:22:28.281Z,40.96
2022-08-26T11:25:09.557Z,41.83
2022-08-26T11:27:38.610Z,41.92
2022-08-26T11:30:18.480Z,40.65
2022-08-26T11:32:55.935Z,38.39
2022-08-26T11:35:25.674Z,36.97
2022-08-26T11:37:56.783Z,36.16
2022-08-26T11:40:25.121Z,35.21
2022-08-26T11:42:59.627Z,34.56
2022-08-26T11:45:26.621Z,34.22
2022-08-26T11:47:54.856Z,34.19
2022-08-26T11:50:28.972Z,33.80
2022-08-26T11:53:06.551Z,33.98
2022-08-26T11:55:35.880Z,34.59
2022-08-26T11:58:05.031Z,34.16
2022-08-26T12:00:36.225Z,34.36
2022-08-26T12:03:05.727Z,33.90
2022-08-26T12:05:36.205Z,33.81
2022-08-26T12:08:09.594Z,33.91
2022-08-26T12:10:37.457Z,33.95
2022-08-26T12:13:05.389Z,34.10
2022-08-26T12:15:33.212Z,35.97
2022-08-26T12:18:41.523Z,37.63
2022-08-26T12:21:16.445Z,39.54
2022-08-26T12:23:44.498Z,41.09
2022-08-26T12:26:47.266Z,41.93
2022-08-26T12:29:27.848Z,41.07
2022-08-26T12:32:08.496Z,40.00
2022-08-26T12:34:35.697Z,40.54
2022-08-26T12:37:02.729Z,39.97
2022-08-26T12:39:33.379Z,40.12
2022-08-26T12:42:01.004Z,41.36
2022-08-26T12:44:33.665Z,41.91
2022-08-26T12:47:11.003Z,42.27
2022-08-26T12:49:39.646Z,41.76
2022-08-26T12:52:07.077Z,41.75
2022-08-26T12:54:56.675Z,42.04
2022-08-26T12:57:31.379Z,41.70
2022-08-26T13:00:19.449Z,41.11
2022-08-26T13:02:48.617Z,40.73
2022-08-26T13:05:23.365Z,41.32
2022-08-26T13:08:12.680Z,40.91
2022-08-26T13:10:44.592Z,40.85
2022-08-26T13:13:16.974Z,40.89
2022-08-26T13:15:44.853Z,40.99
2022-08-26T13:18:11.914Z,41.46
2022-08-26T13:20:41.259Z,41.18
2022-08-26T13:23:08.141Z,39.25
2022-08-26T13:25:40.640Z,38.58
2022-08-26T13:28:15.410Z,36.47
2022-08-26T13:30:42.988Z,35.53
2022-08-26T13:33:13.753Z,37.04
2022-08-26T13:35:41.727Z,38.82
2022-08-26T13:38:20.598Z,39.08
2022-08-26T13:41:00.081Z,38.89
2022-08-26T13:43:28.291Z,39.39
2022-08-26T13:45:55.569Z,39.56
2022-08-26T13:48:23.512Z,39.34
2022-08-26T13:50:51.991Z,39.84
2022-08-26T13:53:24.214Z,39.80
2022-08-26T13:55:51.265Z,39.08
2022-08-26T13:58:18.121Z,39.28
2022-08-26T14:00:45.005Z,39.55
2022-08-26T14:03:14.020Z,39.20
2022-08-26T14:05:41.117Z,38.76
2022-08-26T14:08:08.049Z,38.69
2022-08-26T14:10:35.155Z,39.17
2022-08-26T14:13:07.678Z,39.20
2022-08-26T14:15:37.742Z,39.73
2022-08-26T14:18:16.859Z,39.15
2022-08-26T14:20:49.733Z,38.65
2022-08-26T14:23:17.956Z,38.88
2022-08-26T14:25:44.979Z,39.14
2022-08-26T14:28:12.210Z,39.60
2022-08-26T14:30:40.678Z,39.40
2022-08-26T14:33:11.044Z,39.14
2022-08-26T14:35:38.099Z,39.70
2022-08-26T14:38:05.140Z,39.80
2022-08-26T14:40:32.292Z,39.74
2022-08-26T14:45:45.947Z,39.08
2022-08-26T14:48:14.335Z,39.10
2022-08-26T14:50:41.124Z,38.91
2022-08-26T14:53:26.534Z,38.64
2022-08-26T14:55:53.444Z,38.77
2022-08-26T14:58:20.350Z,38.76
2022-08-26T15:00:47.193Z,38.74
2022-08-26T15:05:48.326Z,38.10
2022-08-26T15:08:16.113Z,37.91
2022-08-26T15:10:43.011Z,37.56
2022-08-26T15:13:09.867Z,37.20
2022-08-26T15:15:38.139Z,36.93
2022-08-26T15:18:06.217Z,35.99
2022-08-26T15:23:07.120Z,35.34
2022-08-26T15:25:34.551Z,34.46
2022-08-26T15:28:01.636Z,33.76
2022-08-26T15:30:28.768Z,33.22
2022-08-26T15:35:40.271Z,32.30
2022-08-26T15:38:10.390Z,32.24
2022-08-26T15:40:37.614Z,32.18
2022-08-26T15:43:18.607Z,31.93
2022-08-26T15:45:52.256Z,31.65
2022-08-26T15:48:19.180Z,31.18
2022-08-26T15:50:53.792Z,30.96
2022-08-26T15:53:21.634Z,30.80
2022-08-26T15:55:48.522Z,30.68
2022-08-26T15:58:17.107Z,30.31
2022-08-26T16:00:44.954Z,30.06
2022-08-26T16:03:11.859Z,29.87
2022-08-26T16:05:39.588Z,29.90
2022-08-26T16:10:56.477Z,29.65
2022-08-26T16:13:23.755Z,29.55
2022-08-26T16:15:50.960Z,29.45
2022-08-26T16:18:17.880Z,29.34
2022-08-26T16:21:02.865Z,29.14
2022-08-26T16:23:36.195Z,28.94
2022-08-26T16:26:10.501Z,28.72
2022-08-26T16:28:38.549Z,28.49
2022-08-26T16:31:06.346Z,28.36
2022-08-26T16:33:33.249Z,28.15
2022-08-26T16:36:00.204Z,27.96
2022-08-26T16:38:27.166Z,27.85
2022-08-26T16:40:54.073Z,27.79
2022-08-26T16:43:21.373Z,27.61
2022-08-26T16:45:48.192Z,27.34
2022-08-26T16:48:18.128Z,27.15
2022-08-26T16:50:45.045Z,27.00
2022-08-26T16:55:47.492Z,26.76
2022-08-26T16:58:14.867Z,26.61
2022-08-26T17:00:41.975Z,26.43
2022-08-26T17:03:09.275Z,26.23
2022-08-26T17:05:36.507Z,26.05
2022-08-26T17:08:03.984Z,25.93
2022-08-26T17:10:31.234Z,25.80
2022-08-26T17:12:58.376Z,25.65
2022-08-26T17:15:25.554Z,25.54
2022-08-26T17:17:52.960Z,25.43
2022-08-26T17:20:20.259Z,25.33
2022-08-26T17:22:48.128Z,25.28
2022-08-26T17:25:20.976Z,25.22
2022-08-26T17:27:48.588Z,25.15
2022-08-26T17:30:16.605Z,25.04
2022-08-26T17:32:43.849Z,24.89
2022-08-26T17:35:11.101Z,24.77
2022-08-26T17:37:40.420Z,24.73
2022-08-26T17:40:08.901Z,24.52
2022-08-26T17:42:37.058Z,24.48
2022-08-26T17:45:04.552Z,24.41
2022-08-26T17:47:31.794Z,24.28
2022-08-26T17:49:58.798Z,24.22
2022-08-26T17:52:25.622Z,24.18
2022-08-26T17:54:53.146Z,24.14
2022-08-26T17:57:20.102Z,24.07
2022-08-26T17:59:48.185Z,24.02
2022-08-26T18:02:15.280Z,23.94
2022-08-26T18:04:43.506Z,23.97
2022-08-26T18:07:15.692Z,23.86
2022-08-26T18:09:42.615Z,23.76
2022-08-26T18:12:09.524Z,23.69
2022-08-26T18:14:36.604Z,23.62
2022-08-26T18:17:03.676Z,23.58
2022-08-26T18:19:31.549Z,23.54
2022-08-26T18:21:58.664Z,23.48
2022-08-26T18:24:25.940Z,23.41
2022-08-26T18:26:52.752Z,23.34
2022-08-26T18:29:20.029Z,23.29
2022-08-26T18:31:47.010Z,23.22
2022-08-26T18:34:15.652Z,23.18
2022-08-26T18:36:42.894Z,23.21
2022-08-26T18:39:09.867Z,23.19
2022-08-26T18:41:41.505Z,23.19
2022-08-26T18:44:12.973Z,23.12
2022-08-26T18:46:40.971Z,23.03
2022-08-26T18:49:08.479Z,23.00
2022-08-26T18:51:35.529Z,22.90
2022-08-26T18:54:03.757Z,22.77
2022-08-26T18:56:30.693Z,22.80
2022-08-26T18:58:59.110Z,22.76
2022-08-26T19:01:27.722Z,22.74
2022-08-26T19:04:02.796Z,22.65
2022-08-26T19:06:33.066Z,22.56
2022-08-26T19:09:00.282Z,22.56
2022-08-26T19:11:31.683Z,22.52
2022-08-26T19:14:00.498Z,22.42
2022-08-26T19:16:27.536Z,22.36
2022-08-26T19:18:55.052Z,22.28
2022-08-26T19:21:22.458Z,22.33
2022-08-26T19:23:49.777Z,22.30
2022-08-26T19:26:17.147Z,22.25
2022-08-26T19:28:44.282Z,22.18
2022-08-26T19:31:11.874Z,22.08
2022-08-26T19:33:39.660Z,22.02
2022-08-26T19:36:07.110Z,21.99
2022-08-26T19:38:35.668Z,21.96
2022-08-26T19:41:02.646Z,21.93
2022-08-26T19:43:29.564Z,21.88
2022-08-26T19:45:59.339Z,21.84
2022-08-26T19:48:26.471Z,21.83
2022-08-26T19:50:53.451Z,21.83
2022-08-26T19:53:20.318Z,21.83
2022-08-26T19:55:47.218Z,21.88
2022-08-26T19:58:14.673Z,21.85
2022-08-26T20:00:42.525Z,21.81
2022-08-26T20:03:10.621Z,21.83
2022-08-26T20:05:39.994Z,21.88
2022-08-26T20:10:51.484Z,21.70
2022-08-26T20:13:18.648Z,21.64
2022-08-26T20:15:45.464Z,21.60
2022-08-26T20:18:31.106Z,21.58
2022-08-26T20:21:16.609Z,21.67
2022-08-26T20:23:51.694Z,21.64
2022-08-26T20:26:19.203Z,21.59
2022-08-26T20:28:46.141Z,21.62
2022-08-26T20:31:14.807Z,21.59
2022-08-26T20:33:46.299Z,21.59
2022-08-26T20:36:15.052Z,21.73
2022-08-26T20:38:43.060Z,21.90
2022-08-26T20:41:10.685Z,22.01
2022-08-26T20:43:37.708Z,22.07
2022-08-26T20:46:04.870Z,22.05
2022-08-26T20:48:39.778Z,21.99
2022-08-26T20:51:06.741Z,21.90
2022-08-26T20:53:33.599Z,21.76
2022-08-26T20:56:01.239Z,21.77
2022-08-26T20:58:28.518Z,21.75
2022-08-26T21:00:55.585Z,21.77
2022-08-26T21:03:23.209Z,21.64
2022-08-26T21:05:50.268Z,21.65
2022-08-26T21:08:17.259Z,21.73
2022-08-26T21:10:44.511Z,21.75
2022-08-26T21:13:13.061Z,21.75
2022-08-26T21:15:39.937Z,21.73
2022-08-26T21:18:06.987Z,21.58
2022-08-26T21:20:34.012Z,21.31
2022-08-26T21:23:00.947Z,21.27
2022-08-26T21:25:27.986Z,21.21
2022-08-26T21:27:56.430Z,21.07
2022-08-26T21:30:23.481Z,20.93
2022-08-26T21:32:50.412Z,20.86
2022-08-26T21:35:17.357Z,20.81
2022-08-26T21:37:44.221Z,20.73
2022-08-26T21:40:11.414Z,20.74
2022-08-26T21:42:38.376Z,20.77
2022-08-26T21:45:05.988Z,20.90
2022-08-26T21:47:32.974Z,20.84
2022-08-26T21:50:00.123Z,20.85
2022-08-26T21:52:27.065Z,20.92
2022-08-26T21:55:00.727Z,21.06
2022-08-26T21:57:27.773Z,21.07
2022-08-26T21:59:54.999Z,21.07
2022-08-26T22:02:22.699Z,21.17
2022-08-26T22:04:49.635Z,21.17
2022-08-26T22:07:18.135Z,21.09
2022-08-26T22:09:45.215Z,21.07
2022-08-26T22:12:12.925Z,21.13
2022-08-26T22:14:39.918Z,21.18
2022-08-26T22:17:06.911Z,21.07
2022-08-26T22:19:46.106Z,20.98
2022-08-26T22:22:13.979Z,20.93
2022-08-26T22:24:40.989Z,20.88
2022-08-26T22:27:07.863Z,20.83
2022-08-26T22:29:34.896Z,20.70
2022-08-26T22:32:01.990Z,20.59
2022-08-26T22:34:29.022Z,20.48
2022-08-26T22:36:56.123Z,20.33
2022-08-26T22:39:23.595Z,20.30
2022-08-26T22:41:50.943Z,20.16
2022-08-26T22:44:18.501Z,20.02
2022-08-26T22:46:45.805Z,19.97
2022-08-26T22:49:15.905Z,19.92
2022-08-26T22:51:43.545Z,19.90
2022-08-26T22:54:10.530Z,20.02
2022-08-26T22:56:37.609Z,20.01
2022-08-26T22:59:05.024Z,19.97
2022-08-26T23:01:33.638Z,19.90
2022-08-26T23:04:00.500Z,19.85
2022-08-26T23:06:27.693Z,19.86
2022-08-26T23:08:56.813Z,19.89
2022-08-26T23:11:23.871Z,19.86
2022-08-26T23:13:50.952Z,19.81
2022-08-26T23:16:18.433Z,19.78
2022-08-26T23:18:45.298Z,19.79
2022-08-26T23:21:12.302Z,19.90
2022-08-26T23:23:39.487Z,19.88
2022-08-26T23:26:09.913Z,19.80
2022-08-26T23:28:36.963Z,19.65
2022-08-26T23:31:04.650Z,19.64
2022-08-26T23:33:50.035Z,19.77
2022-08-26T23:36:18.177Z,19.80
2022-08-26T23:38:52.462Z,19.68
2022-08-26T23:41:20.503Z,19.50
2022-08-26T23:43:47.795Z,19.35
2022-08-26T23:46:14.814Z,19.31
2022-08-26T23:48:41.845Z,19.25
2022-08-26T23:51:27.812Z,19.24
2022-08-26T23:53:54.824Z,19.27
2022-08-26T23:56:21.679Z,19.19
2022-08-26T23:58:49.178Z,19.02
